Elizabethtown, NC (28337)

4:28 PM EDT on October 01, 2014 (GMT -0400)
Elizabethtown | Change Station
CLOSE
Current Station
Airport
Location: Elizabethtown,
Elevation: 131 ft
Nearby Weather Stations

Elev 131 ft 34.60 °N, 78.58 °W | Updated -412 second ago

Scattered Clouds
Scattered Clouds
80 °F
Feels Like 82 °F
N
4
Wind Variable Wind from NNW

Today
High -- | Low -- °F
--% Chance of Precip.
Yesterday
High -- | Low -- °F
Precip. -- in
7:08 AM 6:58 PM
Waxing Crescent, 51% visible
Pressure 29.84 in
Visibility 10.0 miles
Clouds Scattered Clouds 4100 ft
Heat Index 82 °F
Dew Point 63 °F
Humidity 55%
Rainfall 0.00 in
Snow Depth Not available.
UV 2 out of 12
Pollen 5.10 out of 12
Air Quality Not available.
Flu Activity Not available.
METAR KEYF 302035Z AUTO 34003KT 10SM SCT041 27/17 A2984 RMK AO2 T02680171

More Conditions Fewer Conditions

Pressure 29.84 in
Visibility 10.0 miles
Clouds Scattered Clouds 4100 ft
Heat Index 82 °F
Dew Point 63 °F
Humidity 55%
Rainfall 0.00 in
Snow Depth Not available.
UV 2 out of 12
Pollen 5.10 out of 12
Air Quality Not available.
Flu Activity Not available.
METAR KEYF 302035Z AUTO 34003KT 10SM SCT041 27/17 A2984 RMK AO2 T02680171

More Conditions Fewer Conditions

10-Day Weather Forecast

Almanac

Astronomy

Oct. 01, 2014 Rise Set
Actual Time 7:08 AM EDT 6:58 PM EDT
Civil Twilight 6:43 AM EDT 7:23 PM EDT
Nautical Twilight 6:14 AM EDT 7:52 PM EDT
Astronomical Twilight 5:45 AM EDT 8:21 PM EDT
Moon 1:57 PM EDT No Moon Set
Length of Visible Light 12h 39m
Length of Day
11h 49m
Tomorrow will be 2m 9s shorter.
Waxing Crescent, 51% of the Moon is Illuminated
Today
Waxing Crescent
Oct 8
Full
Oct 15
Last Quarter
Oct 23
New
Oct 30
First Quarter

Today's Extremes

State Highs State Lows

Community

WunderPhotos

Upload Photos

1,758,030 photos uploaded!

WunderBlogs® & News

By Dr. Jeff Masters
Director of Meteorology, Weather Underground
By Kari Strenfel
Meteorologist, Weather Underground
By Christopher C. Burt
Weather Historian, Weather Underground
October 1, 2014
October 1, 2014
October 1, 2014

Nearby

Snow Depth

Station Depth Elevation
No new snow has been reported.

Earthquake Activity

City Distance Mag. Time & Date
No recent earthquake activity has been reported nearby.
Minimum magnitude displayed is 2.5.

Coastal Water Temperatures

Place Temperature
No Stations Reporting

Nearby Weather Stations